createdAt,value
2022-10-16T00:01:55.855Z,14.39
2022-10-16T00:07:16.499Z,14.33
2022-10-16T00:12:37.161Z,14.36
2022-10-16T00:17:57.685Z,14.43
2022-10-16T00:23:18.666Z,14.47
2022-10-16T00:28:39.275Z,14.47
2022-10-16T00:34:01.353Z,14.51
2022-10-16T00:39:23.215Z,14.53
2022-10-16T00:44:57.851Z,14.57
2022-10-16T00:50:31.780Z,14.51
2022-10-16T00:55:53.400Z,14.52
2022-10-16T01:01:14.853Z,14.46
2022-10-16T01:07:31.493Z,14.42
2022-10-16T01:13:08.964Z,14.35
2022-10-16T01:18:43.015Z,14.37
2022-10-16T01:24:28.179Z,14.32
2022-10-16T01:30:08.361Z,14.31
2022-10-16T01:35:44.320Z,14.22
2022-10-16T01:41:15.919Z,14.23
2022-10-16T01:46:40.432Z,14.11
2022-10-16T01:52:06.331Z,14.00
2022-10-16T01:57:28.601Z,13.92
2022-10-16T02:02:52.655Z,13.94
2022-10-16T02:08:13.837Z,14.03
2022-10-16T02:13:40.004Z,14.07
2022-10-16T02:19:00.849Z,14.05
2022-10-16T02:24:36.702Z,14.03
2022-10-16T02:30:14.056Z,14.16
2022-10-16T02:35:35.752Z,14.07
2022-10-16T02:40:57.853Z,14.07
2022-10-16T02:46:19.390Z,13.98
2022-10-16T02:51:40.139Z,13.98
2022-10-16T02:57:00.712Z,14.04
2022-10-16T03:02:21.357Z,14.05
2022-10-16T03:07:41.987Z,13.99
2022-10-16T03:13:02.656Z,14.00
2022-10-16T03:18:23.313Z,13.96
2022-10-16T03:23:43.956Z,14.00
2022-10-16T03:29:05.029Z,14.02
2022-10-16T03:34:25.761Z,14.10
2022-10-16T03:39:46.377Z,14.12
2022-10-16T03:45:07.319Z,14.09
2022-10-16T03:50:28.341Z,14.06
2022-10-16T03:55:48.915Z,14.05
2022-10-16T04:01:09.758Z,14.07
2022-10-16T04:06:30.382Z,14.05
2022-10-16T04:11:51.788Z,14.11
2022-10-16T04:17:12.659Z,14.23
2022-10-16T04:22:33.493Z,14.18
2022-10-16T04:27:54.975Z,14.00
2022-10-16T04:33:15.608Z,13.96
2022-10-16T04:38:38.477Z,13.99
2022-10-16T04:43:59.110Z,14.00
2022-10-16T04:49:20.098Z,14.01
2022-10-16T04:54:40.864Z,13.99
2022-10-16T05:00:01.855Z,14.09
2022-10-16T05:05:22.723Z,14.02
2022-10-16T05:10:44.605Z,14.01
2022-10-16T05:16:05.762Z,14.07
2022-10-16T05:21:26.736Z,14.12
2022-10-16T05:26:47.535Z,14.23
2022-10-16T05:32:09.253Z,14.16
2022-10-16T05:37:29.869Z,14.29
2022-10-16T05:42:50.496Z,14.40
2022-10-16T05:48:11.173Z,14.31
2022-10-16T05:53:34.761Z,14.37
2022-10-16T05:58:55.656Z,14.27
2022-10-16T06:04:16.419Z,14.24
2022-10-16T06:09:37.056Z,14.24
2022-10-16T06:14:57.723Z,14.25
2022-10-16T06:20:18.325Z,14.29
2022-10-16T06:25:38.975Z,14.24
2022-10-16T06:31:07.370Z,14.39
2022-10-16T06:36:29.191Z,14.46
2022-10-16T06:41:50.128Z,14.46
2022-10-16T06:47:10.782Z,14.55
2022-10-16T06:52:31.357Z,14.57
2022-10-16T06:57:51.847Z,14.67
2022-10-16T07:03:12.525Z,14.74
2022-10-16T07:08:34.962Z,14.71
2022-10-16T07:13:56.494Z,14.58
2022-10-16T07:19:18.761Z,14.63
2022-10-16T07:24:39.594Z,14.65
2022-10-16T07:30:03.683Z,14.85
2022-10-16T07:35:27.560Z,14.89
2022-10-16T07:40:48.865Z,14.88
2022-10-16T07:46:10.224Z,14.92
2022-10-16T07:51:32.120Z,15.02
2022-10-16T07:56:53.051Z,15.01
2022-10-16T08:02:13.874Z,15.02
2022-10-16T08:07:34.445Z,15.09
2022-10-16T08:12:55.183Z,15.18
2022-10-16T08:18:16.945Z,15.21
2022-10-16T08:23:37.863Z,15.37
2022-10-16T08:28:58.634Z,15.51
2022-10-16T08:34:19.429Z,15.60
2022-10-16T08:39:40.017Z,15.71
2022-10-16T08:45:16.753Z,15.73
2022-10-16T08:50:41.007Z,15.72
2022-10-16T08:56:01.733Z,15.75
2022-10-16T09:01:24.227Z,15.94
2022-10-16T09:07:06.098Z,15.99
2022-10-16T09:12:38.391Z,16.04
2022-10-16T09:18:13.678Z,16.11
2022-10-16T09:23:38.993Z,16.19
2022-10-16T09:28:59.899Z,16.28
2022-10-16T09:34:37.787Z,16.48
2022-10-16T09:39:58.761Z,16.70
2022-10-16T09:45:23.970Z,16.90
2022-10-16T09:50:44.636Z,16.94
2022-10-16T09:56:10.401Z,17.00
2022-10-16T10:01:39.895Z,17.02
2022-10-16T10:07:00.927Z,17.05
2022-10-16T10:12:27.010Z,17.09
2022-10-16T10:17:54.067Z,17.21
2022-10-16T10:23:27.425Z,17.40
2022-10-16T10:28:59.047Z,17.59
2022-10-16T10:34:38.310Z,17.88
2022-10-16T10:40:02.100Z,18.05
2022-10-16T10:45:47.367Z,18.18
2022-10-16T10:51:32.654Z,18.38
2022-10-16T10:57:10.849Z,18.58
2022-10-16T11:02:55.918Z,18.70
2022-10-16T11:08:27.348Z,18.78
2022-10-16T11:14:15.695Z,18.93
2022-10-16T11:20:17.207Z,18.95
2022-10-16T11:25:40.195Z,18.88
2022-10-16T11:31:14.112Z,18.79
2022-10-16T11:36:40.379Z,18.71
2022-10-16T11:42:09.375Z,18.66
2022-10-16T11:47:59.871Z,18.67
2022-10-16T11:53:44.143Z,18.66
2022-10-16T11:59:19.334Z,18.66
2022-10-16T12:04:47.918Z,18.71
2022-10-16T12:10:27.358Z,18.72
2022-10-16T12:15:59.304Z,18.76
2022-10-16T12:21:31.955Z,18.83
2022-10-16T12:26:53.948Z,18.90
2022-10-16T12:32:53.141Z,18.96
2022-10-16T12:38:21.001Z,19.04
2022-10-16T12:43:49.027Z,19.07
2022-10-16T12:49:12.987Z,19.09
2022-10-16T12:54:39.764Z,19.29
2022-10-16T13:00:19.838Z,19.34
2022-10-16T13:06:08.307Z,19.35
2022-10-16T13:12:11.555Z,19.34
2022-10-16T13:17:57.477Z,19.30
2022-10-16T13:23:56.394Z,19.34
2022-10-16T13:29:17.383Z,19.40
2022-10-16T13:34:46.913Z,19.41
2022-10-16T13:40:26.032Z,19.40
2022-10-16T13:46:23.913Z,19.40
2022-10-16T13:51:59.428Z,19.32
2022-10-16T13:57:27.302Z,19.28
2022-10-16T14:02:55.882Z,19.28
2022-10-16T14:08:17.576Z,19.17
2022-10-16T14:13:44.348Z,19.21
2022-10-16T14:19:07.818Z,19.31
2022-10-16T14:24:32.120Z,19.19
2022-10-16T14:30:16.682Z,19.26
2022-10-16T14:35:39.881Z,19.29
2022-10-16T14:41:01.357Z,19.21
2022-10-16T14:46:29.787Z,19.24
2022-10-16T14:51:50.568Z,19.36
2022-10-16T14:57:20.495Z,19.38
2022-10-16T15:02:41.513Z,19.29
2022-10-16T15:08:02.236Z,19.16
2022-10-16T15:13:22.823Z,19.10
2022-10-16T15:18:43.932Z,19.14
2022-10-16T15:24:15.267Z,19.11
2022-10-16T15:29:38.501Z,18.83
2022-10-16T15:34:59.205Z,18.71
2022-10-16T15:40:21.676Z,18.50
2022-10-16T15:45:42.500Z,18.30
2022-10-16T15:51:07.412Z,18.19
2022-10-16T15:56:29.593Z,18.07
2022-10-16T16:01:50.262Z,17.84
2022-10-16T16:07:11.097Z,17.81
2022-10-16T16:12:32.041Z,17.78
2022-10-16T16:17:52.719Z,17.80
2022-10-16T16:23:13.425Z,17.74
2022-10-16T16:28:34.762Z,17.73
2022-10-16T16:33:57.218Z,17.81
2022-10-16T16:39:18.980Z,17.83
2022-10-16T16:44:39.921Z,17.85
2022-10-16T16:50:00.656Z,17.80
2022-10-16T16:55:21.295Z,17.88
2022-10-16T17:00:56.679Z,17.80
2022-10-16T17:06:20.805Z,17.77
2022-10-16T17:11:43.967Z,17.74
2022-10-16T17:17:07.868Z,17.70
2022-10-16T17:22:29.167Z,17.68
2022-10-16T17:27:50.146Z,17.65
2022-10-16T17:33:13.116Z,17.61
2022-10-16T17:38:34.845Z,17.58
2022-10-16T17:43:55.725Z,17.40
2022-10-16T17:49:17.988Z,17.36
2022-10-16T17:54:39.890Z,17.33
2022-10-16T18:00:02.852Z,17.28
2022-10-16T18:05:25.343Z,17.19
2022-10-16T18:10:50.162Z,17.11
2022-10-16T18:16:13.263Z,17.11
2022-10-16T18:21:33.935Z,17.13
2022-10-16T18:26:58.928Z,17.03
2022-10-16T18:32:19.695Z,16.97
2022-10-16T18:37:40.509Z,16.90
2022-10-16T18:43:01.208Z,16.95
2022-10-16T18:48:22.100Z,16.94
2022-10-16T18:53:44.806Z,16.84
2022-10-16T18:59:07.729Z,16.80
2022-10-16T19:04:28.962Z,16.72
2022-10-16T19:09:49.741Z,16.71
2022-10-16T19:15:11.011Z,16.63
2022-10-16T19:20:32.843Z,16.54
2022-10-16T19:25:53.814Z,16.49
2022-10-16T19:31:16.920Z,16.45
2022-10-16T19:36:39.482Z,16.40
2022-10-16T19:42:00.514Z,16.34
2022-10-16T19:47:23.058Z,16.41
2022-10-16T19:52:43.840Z,16.32
2022-10-16T19:58:04.585Z,16.40
2022-10-16T20:03:25.931Z,16.25
2022-10-16T20:08:49.101Z,16.38
2022-10-16T20:14:10.064Z,16.40
2022-10-16T20:19:31.384Z,16.31
2022-10-16T20:24:52.072Z,16.17
2022-10-16T20:30:12.847Z,16.11
2022-10-16T20:35:38.748Z,16.08
2022-10-16T20:41:04.079Z,15.98
2022-10-16T20:46:27.134Z,15.85
2022-10-16T20:51:49.997Z,15.75
2022-10-16T20:57:10.694Z,15.67
2022-10-16T21:02:31.724Z,15.62
2022-10-16T21:07:52.630Z,15.70
2022-10-16T21:13:13.430Z,15.57
2022-10-16T21:18:34.940Z,15.52
2022-10-16T21:23:57.558Z,15.51
2022-10-16T21:29:19.189Z,15.44
2022-10-16T21:34:40.319Z,15.40
2022-10-16T21:40:01.320Z,15.40
2022-10-16T21:45:21.975Z,15.49
2022-10-16T21:50:48.242Z,15.37
2022-10-16T21:56:14.003Z,15.32
2022-10-16T22:01:35.878Z,15.37
2022-10-16T22:06:56.991Z,15.44
2022-10-16T22:12:19.752Z,15.62
2022-10-16T22:17:40.385Z,15.69
2022-10-16T22:23:01.107Z,15.76
2022-10-16T22:28:22.083Z,15.78
2022-10-16T22:33:43.671Z,15.59
2022-10-16T22:39:05.671Z,15.63
2022-10-16T22:44:26.321Z,15.44
2022-10-16T22:49:46.944Z,15.17
2022-10-16T22:55:07.812Z,15.13
2022-10-16T23:00:28.714Z,15.00
2022-10-16T23:05:49.643Z,15.12
2022-10-16T23:11:12.970Z,15.20
2022-10-16T23:16:33.740Z,15.05
2022-10-16T23:21:54.317Z,15.04
2022-10-16T23:27:14.986Z,15.15
2022-10-16T23:32:35.828Z,15.16
2022-10-16T23:37:58.195Z,14.94
2022-10-16T23:43:18.997Z,14.81
2022-10-16T23:48:40.061Z,14.60
2022-10-16T23:54:00.589Z,14.46
2022-10-16T23:59:21.114Z,14.42
